LNG Aquarius — V7BW6 — position and weather

sailwx.info

Track history (hours):
 
Tides and Currents Weather Stations Pressure Air Temp Water Temp Dewpoint Dewpoint Depression Visibility Wind Speed Wind Dir Waves Ship Positions

LNG Aquarius

Last reported at 2017-Dec-31 17:01 UTC. Time now 2018-Feb-19 16:14 UTC.
Position S 24°37' W 045°20'.
Warning: this ship's position is 49 days out of date.

Type: Tanker. MMSI: 538001385.

Date/timePositionNaut miles runAvg speedWind from/ knotsBaromVisibWave heightAir tempDewpointWater temp
2017-Dec-31 17:01S 24°37' W 045°20'0 9.4
2017-Dec-31 16:59S 24°37' W 045°20'5 8.4
2017-Dec-31 16:26S 24°38' W 045°25'46 5.9
2017-Dec-31 08:34S 24°28' W 046°15'0 5.9
2017-Dec-31 08:30S 24°27' W 046°15'4 8.5
2017-Dec-31 08:00S 24°24' W 046°17'6 7.2
2017-Dec-31 07:09S 24°18' W 046°19'1 9.8
2017-Dec-31 07:00S 24°17' W 046°19'3 5.9
2017-Dec-31 06:30S 24°14' W 046°21'4 8.2
2017-Dec-31 06:00S 24°10' W 046°22'3 5.6
2017-Dec-31 05:30S 24°07' W 046°23'4 7.3
2017-Dec-31 05:00S 24°04' W 046°22'3 5.3
2017-Dec-31 04:30S 24°01' W 046°21'  
2017-Dec-28 01:39S 23°57' W 046°19'1 8.8
2017-Dec-28 01:30S 23°58' W 046°18'3 6.9
2017-Dec-28 01:00S 24°00' W 046°20'4 7.5
2017-Dec-28 00:30S 24°04' W 046°22'3 5.8
2017-Dec-28 00:00S 24°07' W 046°23'3 5.1
2017-Dec-27 23:30S 24°09' W 046°24'1 2.5
2017-Dec-27 23:00S 24°10' W 046°23'3 6.3
2017-Dec-27 22:30S 24°10' W 046°20'4 6.8
2017-Dec-27 21:58S 24°10' W 046°16'0 0.5
2017-Dec-27 21:24S 24°10' W 046°16'0 0.0
2017-Dec-27 21:00S 24°10' W 046°16'0 0.0
2017-Dec-27 20:24S 24°10' W 046°16'0 0.0
2017-Dec-27 19:51S 24°10' W 046°16'0 0.0
2017-Dec-27 19:27S 24°10' W 046°16'0 0.0
2017-Dec-27 19:00S 24°10' W 046°16'0 0.0
2017-Dec-27 18:30S 24°10' W 046°16'0 0.0
2017-Dec-27 17:57S 24°10' W 046°16'0 0.0
2017-Dec-27 17:09S 24°10' W 046°16'0 0.0
2017-Dec-27 17:00S 24°10' W 046°16'0 0.0
2017-Dec-27 16:18S 24°10' W 046°16'0 0.1
2017-Dec-27 16:00S 24°10' W 046°16'0 0.0
2017-Dec-27 15:30S 24°10' W 046°16'0 0.0
2017-Dec-27 15:00S 24°10' W 046°16'0 0.0
2017-Dec-27 14:30S 24°10' W 046°16'0 0.0
2017-Dec-27 13:57S 24°10' W 046°16'0 0.0
2017-Dec-27 13:27S 24°10' W 046°16'0 0.0
2017-Dec-27 12:57S 24°10' W 046°16'0 0.0
2017-Dec-27 12:30S 24°10' W 046°16'0 0.0
2017-Dec-27 11:57S 24°10' W 046°16'0 0.0
2017-Dec-27 11:30S 24°10' W 046°16'0 0.0
2017-Dec-27 11:00S 24°10' W 046°16'0 0.0
2017-Dec-27 10:30S 24°10' W 046°16'0 0.0
2017-Dec-27 10:00S 24°10' W 046°16'0 0.0
2017-Dec-27 09:30S 24°10' W 046°16'0 0.0
2017-Dec-27 09:00S 24°10' W 046°16'0 0.0
2017-Dec-27 08:30S 24°10' W 046°16'0 0.0
2017-Dec-27 08:00S 24°10' W 046°16'0 0.0
2017-Dec-27 07:30S 24°10' W 046°16'0 0.0
2017-Dec-27 07:00S 24°10' W 046°16'0 0.0
2017-Dec-27 06:30S 24°10' W 046°16'0 0.0
2017-Dec-27 05:54S 24°10' W 046°16'0 0.0
2017-Dec-27 05:30S 24°10' W 046°16'0 0.0
2017-Dec-27 05:00S 24°10' W 046°16'0 0.0
2017-Dec-27 04:24S 24°10' W 046°16'0 0.0
2017-Dec-27 04:00S 24°10' W 046°16'0 0.0
2017-Dec-27 03:30S 24°10' W 046°16'0 0.0
2017-Dec-27 03:00S 24°10' W 046°16'0 0.0
2017-Dec-27 02:30S 24°10' W 046°16'0 0.0
2017-Dec-27 02:00S 24°10' W 046°16'0 0.0
2017-Dec-27 01:24S 24°10' W 046°16'0 0.0
2017-Dec-27 01:00S 24°10' W 046°16'0 0.0
2017-Dec-27 00:30S 24°10' W 046°16'0 0.0
2017-Dec-27 00:00S 24°10' W 046°16'0 0.0
2017-Dec-26 23:24S 24°10' W 046°16'0 0.0
2017-Dec-26 22:48S 24°10' W 046°16'0 0.0
2017-Dec-26 22:30S 24°10' W 046°16'0 0.0
2017-Dec-26 21:42S 24°10' W 046°16'0 0.0
2017-Dec-26 21:18S 24°10' W 046°16'0 0.0
2017-Dec-26 21:00S 24°10' W 046°16'0 0.0
2017-Dec-26 20:30S 24°10' W 046°16'0 0.0
2017-Dec-26 19:54S 24°10' W 046°16'0 0.0
2017-Dec-26 19:24S 24°10' W 046°16'0 0.0
2017-Dec-26 18:42S 24°10' W 046°16'0 0.1
2017-Dec-26 18:30S 24°10' W 046°16'0 0.0
2017-Dec-26 18:00S 24°10' W 046°16'0 0.0
2017-Dec-26 17:30S 24°10' W 046°16'0 0.0
2017-Dec-26 16:57S 24°10' W 046°16'0 0.0
2017-Dec-26 16:30S 24°10' W 046°16'0 0.0
2017-Dec-26 16:00S 24°10' W 046°16'0 0.0
2017-Dec-26 15:30S 24°10' W 046°16'0 0.0
2017-Dec-26 15:00S 24°10' W 046°16'0 0.0
2017-Dec-26 14:30S 24°10' W 046°16'0 0.0
2017-Dec-26 14:00S 24°10' W 046°16'0 0.0
2017-Dec-26 13:27S 24°10' W 046°16'0 0.1
2017-Dec-26 13:00S 24°10' W 046°16'0 0.0
2017-Dec-26 12:30S 24°10' W 046°16'0 0.0
2017-Dec-26 12:00S 24°10' W 046°16'0 0.0
2017-Dec-26 11:30S 24°10' W 046°16'0 0.0
2017-Dec-26 11:00S 24°10' W 046°16'0 0.0
2017-Dec-26 10:27S 24°10' W 046°16'0 0.0
2017-Dec-26 10:00S 24°10' W 046°16'0 0.1
2017-Dec-26 09:30S 24°10' W 046°16'0 0.0
2017-Dec-26 09:00S 24°10' W 046°16'0 0.0
2017-Dec-26 08:30S 24°10' W 046°16'0 0.0
2017-Dec-26 08:00S 24°10' W 046°16'0 0.0
2017-Dec-26 07:30S 24°10' W 046°16'0 0.0
2017-Dec-26 06:57S 24°10' W 046°16'0 0.0
2017-Dec-26 06:27S 24°10' W 046°16'0 0.0
2017-Dec-26 05:57S 24°10' W 046°16'0 0.1
2017-Dec-26 05:30S 24°10' W 046°16'0 0.0
2017-Dec-26 04:57S 24°10' W 046°16'0 0.0
2017-Dec-26 04:24S 24°10' W 046°16'0 0.1
2017-Dec-26 04:00S 24°10' W 046°16'0 0.1
2017-Dec-26 03:30S 24°10' W 046°16'0 0.0
2017-Dec-26 02:57S 24°10' W 046°16'0 0.0
2017-Dec-26 02:30S 24°10' W 046°16'0 0.1
2017-Dec-26 01:57S 24°10' W 046°16'0 0.0
2017-Dec-26 01:30S 24°10' W 046°16'0 0.1
2017-Dec-26 01:00S 24°10' W 046°16'0 0.0
2017-Dec-26 00:30S 24°10' W 046°16'0 0.0
2017-Dec-26 00:00S 24°10' W 046°16'0 0.0
2017-Dec-25 23:30S 24°10' W 046°16'0 0.0
2017-Dec-25 23:00S 24°10' W 046°16'0 0.0
2017-Dec-25 22:30S 24°10' W 046°16'0 0.0
2017-Dec-25 21:57S 24°10' W 046°16'0 0.0
2017-Dec-25 20:51S 24°10' W 046°16'0 0.0
2017-Dec-25 19:30S 24°10' W 046°16'0 0.0
2017-Dec-25 19:00S 24°10' W 046°16'0 0.0
2017-Dec-25 18:27S 24°10' W 046°16'0 0.0
2017-Dec-25 18:00S 24°10' W 046°16'0 0.0
2017-Dec-25 17:30S 24°10' W 046°16'0 0.0
2017-Dec-25 17:00S 24°10' W 046°16'0 0.0
2017-Dec-25 16:30S 24°10' W 046°16'0 0.0
2017-Dec-25 13:42S 24°10' W 046°16'0 0.1
2017-Dec-25 13:27S 24°10' W 046°16'0 0.0
2017-Dec-25 13:00S 24°10' W 046°16'0 0.0
2017-Dec-25 12:30S 24°10' W 046°16'0 0.0
2017-Dec-25 12:00S 24°10' W 046°16'0 0.0
2017-Dec-25 11:30S 24°10' W 046°16'0 0.0
2017-Dec-25 11:00S 24°10' W 046°16'0 0.0
2017-Dec-25 10:30S 24°10' W 046°16'0 0.0
2017-Dec-25 09:54S 24°10' W 046°16'0 0.0
2017-Dec-25 09:30S 24°10' W 046°16'0 0.0
2017-Dec-25 08:42S 24°10' W 046°16'0 0.0
2017-Dec-25 08:24S 24°10' W 046°16'0 0.0
2017-Dec-25 07:54S 24°10' W 046°16'0 0.1
2017-Dec-25 07:24S 24°10' W 046°16'0 0.1
2017-Dec-25 07:00S 24°10' W 046°16'0 0.0
2017-Dec-25 06:21S 24°10' W 046°16'0 0.0
2017-Dec-25 06:00S 24°10' W 046°16'0 0.1
2017-Dec-25 05:06S 24°10' W 046°16'0 0.3
2017-Dec-25 05:00S 24°10' W 046°16'0 0.1
2017-Dec-25 04:15S 24°10' W 046°16'0 0.0
2017-Dec-25 03:57S 24°10' W 046°16'0 0.0
2017-Dec-25 03:24S 24°10' W 046°16'0 0.0
2017-Dec-25 03:00S 24°10' W 046°16'0 0.0
2017-Dec-25 02:30S 24°10' W 046°16'0 0.0
2017-Dec-25 01:54S 24°10' W 046°16'0 0.0
2017-Dec-25 01:30S 24°10' W 046°16'0 0.0
2017-Dec-25 01:00S 24°10' W 046°16'0 0.0
2017-Dec-25 00:30S 24°10' W 046°16'0 0.0
2017-Dec-25 00:00S 24°10' W 046°16'0 0.0
2017-Dec-24 23:30S 24°10' W 046°16'0 0.0
2017-Dec-24 22:57S 24°10' W 046°16'0 0.0
2017-Dec-24 22:27S 24°10' W 046°16'0 0.0
2017-Dec-24 22:00S 24°10' W 046°16'0 0.0
2017-Dec-24 21:30S 24°10' W 046°16'0 0.1
2017-Dec-24 21:00S 24°10' W 046°16'0 0.0
2017-Dec-24 20:30S 24°10' W 046°16'0 0.0
2017-Dec-24 20:00S 24°10' W 046°16'0 0.0
2017-Dec-24 19:30S 24°10' W 046°16'0 0.0
2017-Dec-24 19:00S 24°10' W 046°16'0 0.0
2017-Dec-24 18:30S 24°10' W 046°16'0 0.1
2017-Dec-24 18:00S 24°10' W 046°16'0 0.0
2017-Dec-24 17:30S 24°10' W 046°16'0 0.1
2017-Dec-24 17:00S 24°10' W 046°16'0 0.0
2017-Dec-24 16:30S 24°10' W 046°16'0 0.0
2017-Dec-24 16:00S 24°10' W 046°16'0 0.0
2017-Dec-24 15:30S 24°10' W 046°16'0 0.0
2017-Dec-24 14:57S 24°10' W 046°16'0 0.0
2017-Dec-24 14:30S 24°10' W 046°16'0 0.0
2017-Dec-24 14:00S 24°10' W 046°16'0 0.0
2017-Dec-24 13:30S 24°10' W 046°16'0 0.0
2017-Dec-24 13:00S 24°10' W 046°16'0 0.0
2017-Dec-24 12:30S 24°10' W 046°16'0 0.1
2017-Dec-24 12:00S 24°10' W 046°16'0 0.0
2017-Dec-24 11:26S 24°10' W 046°16'0 0.0
2017-Dec-24 10:53S 24°10' W 046°16'0 0.0
2017-Dec-24 10:29S 24°10' W 046°16'0 0.0
2017-Dec-24 09:57S 24°10' W 046°16'0 0.0
2017-Dec-24 09:30S 24°10' W 046°16'0 0.1
2017-Dec-24 09:00S 24°10' W 046°16'0 0.0
2017-Dec-24 08:30S 24°10' W 046°16'0 0.0
2017-Dec-24 08:00S 24°10' W 046°16'0 0.0
2017-Dec-24 07:30S 24°10' W 046°16'0 0.0
2017-Dec-24 07:00S 24°10' W 046°16'0 0.0
2017-Dec-24 06:30S 24°10' W 046°16'0 0.0
2017-Dec-24 05:59S 24°10' W 046°16'0 0.0
2017-Dec-24 05:27S 24°10' W 046°16'0 0.0
2017-Dec-24 05:00S 24°10' W 046°16'0 0.0
2017-Dec-24 04:30S 24°10' W 046°16'0 0.0
2017-Dec-24 04:00S 24°10' W 046°16'0 0.0
2017-Dec-24 03:30S 24°10' W 046°16'0 0.0
2017-Dec-24 02:51S 24°10' W 046°16'0 0.0
2017-Dec-24 02:27S 24°10' W 046°16'0 0.1
2017-Dec-24 02:00S 24°10' W 046°16'0 0.0
2017-Dec-24 01:30S 24°10' W 046°16'0 0.0
2017-Dec-24 01:00S 24°10' W 046°16'0 0.0
2017-Dec-24 00:30S 24°10' W 046°16'0 0.0
2017-Dec-23 23:45S 24°10' W 046°16'0 0.1
2017-Dec-23 23:30S 24°10' W 046°16'0 0.1
2017-Dec-23 22:57S 24°10' W 046°16'0 0.1
2017-Dec-23 22:30S 24°10' W 046°16'0 0.2
2017-Dec-23 21:44S 24°10' W 046°16'0 0.0
2017-Dec-23 21:30S 24°10' W 046°16'0 0.0
2017-Dec-23 21:00S 24°10' W 046°16'0 0.0
2017-Dec-23 20:29S 24°10' W 046°16'0 0.0
2017-Dec-23 19:59S 24°10' W 046°16'0 0.0
2017-Dec-23 19:29S 24°10' W 046°16'0 0.0
2017-Dec-23 18:56S 24°10' W 046°16'0 0.0
2017-Dec-23 18:30S 24°10' W 046°16'0 0.0
2017-Dec-23 18:00S 24°10' W 046°16'0 0.0
2017-Dec-23 17:30S 24°10' W 046°16'0 0.0
2017-Dec-23 17:00S 24°10' W 046°16'0 0.0
2017-Dec-23 16:29S 24°10' W 046°16'0 0.0
2017-Dec-23 15:59S 24°10' W 046°16'0 0.0
2017-Dec-23 15:29S 24°10' W 046°16'0 0.0
2017-Dec-23 14:57S 24°10' W 046°16'0 0.0
2017-Dec-23 14:29S 24°10' W 046°16'0 0.0
2017-Dec-23 13:59S 24°10' W 046°16'0 0.0
2017-Dec-23 13:29S 24°10' W 046°16'0 0.0
2017-Dec-23 12:59S 24°10' W 046°16'0 0.0
2017-Dec-23 12:30S 24°10' W 046°16'0 0.0
2017-Dec-23 12:00S 24°10' W 046°16'0 0.0
2017-Dec-23 11:30S 24°10' W 046°16'0 0.0
2017-Dec-23 10:59S 24°10' W 046°16'0 0.0
2017-Dec-23 10:29S 24°10' W 046°16'0 0.0
2017-Dec-23 09:59S 24°10' W 046°16'0 0.0
2017-Dec-23 09:29S 24°10' W 046°16'0 0.0
2017-Dec-23 09:00S 24°10' W 046°16'0 0.0
2017-Dec-23 08:23S 24°10' W 046°16'0 0.0
2017-Dec-23 07:56S 24°10' W 046°16'0 0.0
2017-Dec-23 07:29S 24°10' W 046°16'0 0.0
2017-Dec-23 06:53S 24°10' W 046°16'0 0.0
2017-Dec-23 06:29S 24°10' W 046°16'0 0.0
2017-Dec-23 05:56S 24°10' W 046°16'0 0.0
2017-Dec-23 05:23S 24°10' W 046°16'0 0.0
2017-Dec-23 04:59S 24°10' W 046°16'0 0.0
2017-Dec-23 04:26S 24°10' W 046°16'0 0.0
2017-Dec-23 03:59S 24°10' W 046°16'0 0.0
2017-Dec-23 03:29S 24°10' W 046°16'0 0.0
2017-Dec-23 02:59S 24°10' W 046°16'0 0.0
2017-Dec-23 02:29S 24°10' W 046°16'0 0.0
2017-Dec-23 01:59S 24°10' W 046°16'0 0.0
2017-Dec-23 01:29S 24°10' W 046°16'0 0.0
2017-Dec-23 00:59S 24°10' W 046°16'0 0.0
2017-Dec-23 00:29S 24°10' W 046°16'0 0.0
2017-Dec-22 23:59S 24°10' W 046°16'0 0.0
2017-Dec-22 23:29S 24°10' W 046°16'0 0.0
2017-Dec-22 22:59S 24°10' W 046°16'0 0.0
2017-Dec-22 22:29S 24°10' W 046°16'0 0.0
2017-Dec-22 21:59S 24°10' W 046°16'0 0.0
2017-Dec-22 21:26S 24°10' W 046°16'0 0.0
2017-Dec-22 20:59S 24°10' W 046°16'0 0.0
2017-Dec-22 20:29S 24°10' W 046°16'0 0.0
2017-Dec-22 19:59S 24°10' W 046°16'0 0.0
2017-Dec-22 19:26S 24°10' W 046°16'0 0.0
2017-Dec-22 18:59S 24°10' W 046°16'0 0.0
2017-Dec-22 18:26S 24°10' W 046°16'0 0.0
2017-Dec-22 17:59S 24°10' W 046°16'0 0.0
2017-Dec-22 17:29S 24°10' W 046°16'0 0.0
2017-Dec-22 16:59S 24°10' W 046°16'0 0.0
2017-Dec-22 16:23S 24°10' W 046°16'0 0.0
2017-Dec-22 15:53S 24°10' W 046°16'0 0.0
2017-Dec-22 15:29S 24°10' W 046°16'0 0.0
2017-Dec-22 14:59S 24°10' W 046°16'0 0.0
2017-Dec-22 14:29S 24°10' W 046°16'0 0.0
2017-Dec-22 13:59S 24°10' W 046°16'0 0.0
2017-Dec-22 13:23S 24°10' W 046°16'0 0.0
2017-Dec-22 12:56S 24°10' W 046°16'0 0.0
2017-Dec-22 12:26S 24°10' W 046°16'0 0.0
2017-Dec-22 11:59S 24°10' W 046°16'0 0.0
2017-Dec-22 11:29S 24°10' W 046°16'0 0.0
2017-Dec-22 10:59S 24°10' W 046°16'0 0.0
2017-Dec-22 10:29S 24°10' W 046°16'0 0.0
2017-Dec-22 09:59S 24°10' W 046°16'0 0.0
2017-Dec-22 09:29S 24°10' W 046°16'0 0.0
2017-Dec-22 08:59S 24°10' W 046°16'0 0.0
2017-Dec-22 08:23S 24°10' W 046°16'0 0.1
2017-Dec-22 07:59S 24°10' W 046°16'0 0.0
2017-Dec-22 07:23S 24°10' W 046°16'0 0.0
2017-Dec-22 06:53S 24°10' W 046°16'0 0.0
2017-Dec-22 06:29S 24°10' W 046°16'0 0.0
2017-Dec-22 05:59S 24°10' W 046°16'0 0.0
2017-Dec-22 05:29S 24°10' W 046°16'0 0.0
2017-Dec-22 04:59S 24°10' W 046°16'0 0.0
2017-Dec-22 04:29S 24°10' W 046°16'0 0.0
2017-Dec-22 03:59S 24°10' W 046°16'0 0.0
2017-Dec-22 03:29S 24°10' W 046°16'0 0.0
2017-Dec-22 02:59S 24°10' W 046°16'0 0.0
2017-Dec-22 02:29S 24°10' W 046°16'0 0.0
2017-Dec-22 01:59S 24°10' W 046°16'0 0.0
2017-Dec-22 01:29S 24°10' W 046°16'0 0.0
2017-Dec-22 00:53S 24°10' W 046°16'0 0.0
2017-Dec-22 00:23S 24°10' W 046°16'0 0.0
2017-Dec-21 23:53S 24°10' W 046°16'0 0.0
2017-Dec-21 23:29S 24°10' W 046°16'0 0.0
2017-Dec-21 22:53S 24°10' W 046°16'0 0.0
2017-Dec-21 22:26S 24°10' W 046°16'0 0.0
2017-Dec-21 21:59S 24°10' W 046°16'0 0.0
2017-Dec-21 21:08S 24°10' W 046°16'0 0.0
2017-Dec-21 20:56S 24°10' W 046°16'0 0.0
2017-Dec-21 20:26S 24°10' W 046°16'0 0.0
2017-Dec-21 19:59S 24°10' W 046°16'0 0.0
2017-Dec-21 19:29S 24°10' W 046°16'0 0.0
2017-Dec-21 18:59S 24°10' W 046°16'0 0.0
2017-Dec-21 18:29S 24°10' W 046°16'0 0.0
2017-Dec-21 17:59S 24°10' W 046°16'0 0.0
2017-Dec-21 17:29S 24°10' W 046°16'  
Track history (hours):
 
Tides and Currents Weather Stations Pressure Air Temp Water Temp Dewpoint Dewpoint Depression Visibility Wind Speed Wind Dir Waves Ship Positions

LNG Aquarius

Last reported at 2017-Dec-31 17:01 UTC. Time now 2018-Feb-19 16:14 UTC.
Position S 24°37' W 045°20'.
Warning: this ship's position is 49 days out of date.

Type: Tanker. MMSI: 538001385.

Date/timePositionNaut miles runAvg speedWind from/ knotsBaromVisibWave heightAir tempDewpointWater temp
2017-Dec-31 17:01S 24°37' W 045°20'0 9.4
2017-Dec-31 16:59S 24°37' W 045°20'5 8.4
2017-Dec-31 16:26S 24°38' W 045°25'46 5.9
2017-Dec-31 08:34S 24°28' W 046°15'0 5.9
2017-Dec-31 08:30S 24°27' W 046°15'4 8.5
2017-Dec-31 08:00S 24°24' W 046°17'6 7.2
2017-Dec-31 07:09S 24°18' W 046°19'1 9.8
2017-Dec-31 07:00S 24°17' W 046°19'3 5.9
2017-Dec-31 06:30S 24°14' W 046°21'4 8.2
2017-Dec-31 06:00S 24°10' W 046°22'3 5.6
2017-Dec-31 05:30S 24°07' W 046°23'4 7.3
2017-Dec-31 05:00S 24°04' W 046°22'3 5.3
2017-Dec-31 04:30S 24°01' W 046°21'  
2017-Dec-28 01:39S 23°57' W 046°19'1 8.8
2017-Dec-28 01:30S 23°58' W 046°18'3 6.9
2017-Dec-28 01:00S 24°00' W 046°20'4 7.5
2017-Dec-28 00:30S 24°04' W 046°22'3 5.8
2017-Dec-28 00:00S 24°07' W 046°23'3 5.1
2017-Dec-27 23:30S 24°09' W 046°24'1 2.5
2017-Dec-27 23:00S 24°10' W 046°23'3 6.3
2017-Dec-27 22:30S 24°10' W 046°20'4 6.8
2017-Dec-27 21:58S 24°10' W 046°16'0 0.5
2017-Dec-27 21:24S 24°10' W 046°16'0 0.0
2017-Dec-27 21:00S 24°10' W 046°16'0 0.0
2017-Dec-27 20:24S 24°10' W 046°16'0 0.0
2017-Dec-27 19:51S 24°10' W 046°16'0 0.0
2017-Dec-27 19:27S 24°10' W 046°16'0 0.0
2017-Dec-27 19:00S 24°10' W 046°16'0 0.0
2017-Dec-27 18:30S 24°10' W 046°16'0 0.0
2017-Dec-27 17:57S 24°10' W 046°16'0 0.0
2017-Dec-27 17:09S 24°10' W 046°16'0 0.0
2017-Dec-27 17:00S 24°10' W 046°16'0 0.0
2017-Dec-27 16:18S 24°10' W 046°16'0 0.1
2017-Dec-27 16:00S 24°10' W 046°16'0 0.0
2017-Dec-27 15:30S 24°10' W 046°16'0 0.0
2017-Dec-27 15:00S 24°10' W 046°16'0 0.0
2017-Dec-27 14:30S 24°10' W 046°16'0 0.0
2017-Dec-27 13:57S 24°10' W 046°16'0 0.0
2017-Dec-27 13:27S 24°10' W 046°16'0 0.0
2017-Dec-27 12:57S 24°10' W 046°16'0 0.0
2017-Dec-27 12:30S 24°10' W 046°16'0 0.0
2017-Dec-27 11:57S 24°10' W 046°16'0 0.0
2017-Dec-27 11:30S 24°10' W 046°16'0 0.0
2017-Dec-27 11:00S 24°10' W 046°16'0 0.0
2017-Dec-27 10:30S 24°10' W 046°16'0 0.0
2017-Dec-27 10:00S 24°10' W 046°16'0 0.0
2017-Dec-27 09:30S 24°10' W 046°16'0 0.0
2017-Dec-27 09:00S 24°10' W 046°16'0 0.0
2017-Dec-27 08:30S 24°10' W 046°16'0 0.0
2017-Dec-27 08:00S 24°10' W 046°16'0 0.0
2017-Dec-27 07:30S 24°10' W 046°16'0 0.0
2017-Dec-27 07:00S 24°10' W 046°16'0 0.0
2017-Dec-27 06:30S 24°10' W 046°16'0 0.0
2017-Dec-27 05:54S 24°10' W 046°16'0 0.0
2017-Dec-27 05:30S 24°10' W 046°16'0 0.0
2017-Dec-27 05:00S 24°10' W 046°16'0 0.0
2017-Dec-27 04:24S 24°10' W 046°16'0 0.0
2017-Dec-27 04:00S 24°10' W 046°16'0 0.0
2017-Dec-27 03:30S 24°10' W 046°16'0 0.0
2017-Dec-27 03:00S 24°10' W 046°16'0 0.0
2017-Dec-27 02:30S 24°10' W 046°16'0 0.0
2017-Dec-27 02:00S 24°10' W 046°16'0 0.0
2017-Dec-27 01:24S 24°10' W 046°16'0 0.0
2017-Dec-27 01:00S 24°10' W 046°16'0 0.0
2017-Dec-27 00:30S 24°10' W 046°16'0 0.0
2017-Dec-27 00:00S 24°10' W 046°16'0 0.0
2017-Dec-26 23:24S 24°10' W 046°16'0 0.0
2017-Dec-26 22:48S 24°10' W 046°16'0 0.0
2017-Dec-26 22:30S 24°10' W 046°16'0 0.0
2017-Dec-26 21:42S 24°10' W 046°16'0 0.0
2017-Dec-26 21:18S 24°10' W 046°16'0 0.0
2017-Dec-26 21:00S 24°10' W 046°16'0 0.0
2017-Dec-26 20:30S 24°10' W 046°16'0 0.0
2017-Dec-26 19:54S 24°10' W 046°16'0 0.0
2017-Dec-26 19:24S 24°10' W 046°16'0 0.0
2017-Dec-26 18:42S 24°10' W 046°16'0 0.1
2017-Dec-26 18:30S 24°10' W 046°16'0 0.0
2017-Dec-26 18:00S 24°10' W 046°16'0 0.0
2017-Dec-26 17:30S 24°10' W 046°16'0 0.0
2017-Dec-26 16:57S 24°10' W 046°16'0 0.0
2017-Dec-26 16:30S 24°10' W 046°16'0 0.0
2017-Dec-26 16:00S 24°10' W 046°16'0 0.0
2017-Dec-26 15:30S 24°10' W 046°16'0 0.0
2017-Dec-26 15:00S 24°10' W 046°16'0 0.0
2017-Dec-26 14:30S 24°10' W 046°16'0 0.0
2017-Dec-26 14:00S 24°10' W 046°16'0 0.0
2017-Dec-26 13:27S 24°10' W 046°16'0 0.1
2017-Dec-26 13:00S 24°10' W 046°16'0 0.0
2017-Dec-26 12:30S 24°10' W 046°16'0 0.0
2017-Dec-26 12:00S 24°10' W 046°16'0 0.0
2017-Dec-26 11:30S 24°10' W 046°16'0 0.0
2017-Dec-26 11:00S 24°10' W 046°16'0 0.0
2017-Dec-26 10:27S 24°10' W 046°16'0 0.0
2017-Dec-26 10:00S 24°10' W 046°16'0 0.1
2017-Dec-26 09:30S 24°10' W 046°16'0 0.0
2017-Dec-26 09:00S 24°10' W 046°16'0 0.0
2017-Dec-26 08:30S 24°10' W 046°16'0 0.0
2017-Dec-26 08:00S 24°10' W 046°16'0 0.0
2017-Dec-26 07:30S 24°10' W 046°16'0 0.0
2017-Dec-26 06:57S 24°10' W 046°16'0 0.0
2017-Dec-26 06:27S 24°10' W 046°16'0 0.0
2017-Dec-26 05:57S 24°10' W 046°16'0 0.1
2017-Dec-26 05:30S 24°10' W 046°16'0 0.0
2017-Dec-26 04:57S 24°10' W 046°16'0 0.0
2017-Dec-26 04:24S 24°10' W 046°16'0 0.1
2017-Dec-26 04:00S 24°10' W 046°16'0 0.1
2017-Dec-26 03:30S 24°10' W 046°16'0 0.0
2017-Dec-26 02:57S 24°10' W 046°16'0 0.0
2017-Dec-26 02:30S 24°10' W 046°16'0 0.1
2017-Dec-26 01:57S 24°10' W 046°16'0 0.0
2017-Dec-26 01:30S 24°10' W 046°16'0 0.1
2017-Dec-26 01:00S 24°10' W 046°16'0 0.0
2017-Dec-26 00:30S 24°10' W 046°16'0 0.0
2017-Dec-26 00:00S 24°10' W 046°16'0 0.0
2017-Dec-25 23:30S 24°10' W 046°16'0 0.0
2017-Dec-25 23:00S 24°10' W 046°16'0 0.0
2017-Dec-25 22:30S 24°10' W 046°16'0 0.0
2017-Dec-25 21:57S 24°10' W 046°16'0 0.0
2017-Dec-25 20:51S 24°10' W 046°16'0 0.0
2017-Dec-25 19:30S 24°10' W 046°16'0 0.0
2017-Dec-25 19:00S 24°10' W 046°16'0 0.0
2017-Dec-25 18:27S 24°10' W 046°16'0 0.0
2017-Dec-25 18:00S 24°10' W 046°16'0 0.0
2017-Dec-25 17:30S 24°10' W 046°16'0 0.0
2017-Dec-25 17:00S 24°10' W 046°16'0 0.0
2017-Dec-25 16:30S 24°10' W 046°16'0 0.0
2017-Dec-25 13:42S 24°10' W 046°16'0 0.1
2017-Dec-25 13:27S 24°10' W 046°16'0 0.0
2017-Dec-25 13:00S 24°10' W 046°16'0 0.0
2017-Dec-25 12:30S 24°10' W 046°16'0 0.0
2017-Dec-25 12:00S 24°10' W 046°16'0 0.0
2017-Dec-25 11:30S 24°10' W 046°16'0 0.0
2017-Dec-25 11:00S 24°10' W 046°16'0 0.0
2017-Dec-25 10:30S 24°10' W 046°16'0 0.0
2017-Dec-25 09:54S 24°10' W 046°16'0 0.0
2017-Dec-25 09:30S 24°10' W 046°16'0 0.0
2017-Dec-25 08:42S 24°10' W 046°16'0 0.0
2017-Dec-25 08:24S 24°10' W 046°16'0 0.0
2017-Dec-25 07:54S 24°10' W 046°16'0 0.1
2017-Dec-25 07:24S 24°10' W 046°16'0 0.1
2017-Dec-25 07:00S 24°10' W 046°16'0 0.0
2017-Dec-25 06:21S 24°10' W 046°16'0 0.0
2017-Dec-25 06:00S 24°10' W 046°16'0 0.1
2017-Dec-25 05:06S 24°10' W 046°16'0 0.3
2017-Dec-25 05:00S 24°10' W 046°16'0 0.1
2017-Dec-25 04:15S 24°10' W 046°16'0 0.0
2017-Dec-25 03:57S 24°10' W 046°16'0 0.0
2017-Dec-25 03:24S 24°10' W 046°16'0 0.0
2017-Dec-25 03:00S 24°10' W 046°16'0 0.0
2017-Dec-25 02:30S 24°10' W 046°16'0 0.0
2017-Dec-25 01:54S 24°10' W 046°16'0 0.0
2017-Dec-25 01:30S 24°10' W 046°16'0 0.0
2017-Dec-25 01:00S 24°10' W 046°16'0 0.0
2017-Dec-25 00:30S 24°10' W 046°16'0 0.0
2017-Dec-25 00:00S 24°10' W 046°16'0 0.0
2017-Dec-24 23:30S 24°10' W 046°16'0 0.0
2017-Dec-24 22:57S 24°10' W 046°16'0 0.0
2017-Dec-24 22:27S 24°10' W 046°16'0 0.0
2017-Dec-24 22:00S 24°10' W 046°16'0 0.0
2017-Dec-24 21:30S 24°10' W 046°16'0 0.1
2017-Dec-24 21:00S 24°10' W 046°16'0 0.0
2017-Dec-24 20:30S 24°10' W 046°16'0 0.0
2017-Dec-24 20:00S 24°10' W 046°16'0 0.0
2017-Dec-24 19:30S 24°10' W 046°16'0 0.0
2017-Dec-24 19:00S 24°10' W 046°16'0 0.0
2017-Dec-24 18:30S 24°10' W 046°16'0 0.1
2017-Dec-24 18:00S 24°10' W 046°16'0 0.0
2017-Dec-24 17:30S 24°10' W 046°16'0 0.1
2017-Dec-24 17:00S 24°10' W 046°16'0 0.0
2017-Dec-24 16:30S 24°10' W 046°16'0 0.0
2017-Dec-24 16:00S 24°10' W 046°16'0 0.0
2017-Dec-24 15:30S 24°10' W 046°16'0 0.0
2017-Dec-24 14:57S 24°10' W 046°16'0 0.0
2017-Dec-24 14:30S 24°10' W 046°16'0 0.0
2017-Dec-24 14:00S 24°10' W 046°16'0 0.0
2017-Dec-24 13:30S 24°10' W 046°16'0 0.0
2017-Dec-24 13:00S 24°10' W 046°16'0 0.0
2017-Dec-24 12:30S 24°10' W 046°16'0 0.1
2017-Dec-24 12:00S 24°10' W 046°16'0 0.0
2017-Dec-24 11:26S 24°10' W 046°16'0 0.0
2017-Dec-24 10:53S 24°10' W 046°16'0 0.0
2017-Dec-24 10:29S 24°10' W 046°16'0 0.0
2017-Dec-24 09:57S 24°10' W 046°16'0 0.0
2017-Dec-24 09:30S 24°10' W 046°16'0 0.1
2017-Dec-24 09:00S 24°10' W 046°16'0 0.0
2017-Dec-24 08:30S 24°10' W 046°16'0 0.0
2017-Dec-24 08:00S 24°10' W 046°16'0 0.0
2017-Dec-24 07:30S 24°10' W 046°16'0 0.0
2017-Dec-24 07:00S 24°10' W 046°16'0 0.0
2017-Dec-24 06:30S 24°10' W 046°16'0 0.0
2017-Dec-24 05:59S 24°10' W 046°16'0 0.0
2017-Dec-24 05:27S 24°10' W 046°16'0 0.0
2017-Dec-24 05:00S 24°10' W 046°16'0 0.0
2017-Dec-24 04:30S 24°10' W 046°16'0 0.0
2017-Dec-24 04:00S 24°10' W 046°16'0 0.0
2017-Dec-24 03:30S 24°10' W 046°16'0 0.0
2017-Dec-24 02:51S 24°10' W 046°16'0 0.0
2017-Dec-24 02:27S 24°10' W 046°16'0 0.1
2017-Dec-24 02:00S 24°10' W 046°16'0 0.0
2017-Dec-24 01:30S 24°10' W 046°16'0 0.0
2017-Dec-24 01:00S 24°10' W 046°16'0 0.0
2017-Dec-24 00:30S 24°10' W 046°16'0 0.0
2017-Dec-23 23:45S 24°10' W 046°16'0 0.1
2017-Dec-23 23:30S 24°10' W 046°16'0 0.1
2017-Dec-23 22:57S 24°10' W 046°16'0 0.1
2017-Dec-23 22:30S 24°10' W 046°16'0 0.2
2017-Dec-23 21:44S 24°10' W 046°16'0 0.0
2017-Dec-23 21:30S 24°10' W 046°16'0 0.0
2017-Dec-23 21:00S 24°10' W 046°16'0 0.0
2017-Dec-23 20:29S 24°10' W 046°16'0 0.0
2017-Dec-23 19:59S 24°10' W 046°16'0 0.0
2017-Dec-23 19:29S 24°10' W 046°16'0 0.0
2017-Dec-23 18:56S 24°10' W 046°16'0 0.0
2017-Dec-23 18:30S 24°10' W 046°16'0 0.0
2017-Dec-23 18:00S 24°10' W 046°16'0 0.0
2017-Dec-23 17:30S 24°10' W 046°16'0 0.0
2017-Dec-23 17:00S 24°10' W 046°16'0 0.0
2017-Dec-23 16:29S 24°10' W 046°16'0 0.0
2017-Dec-23 15:59S 24°10' W 046°16'0 0.0
2017-Dec-23 15:29S 24°10' W 046°16'0 0.0
2017-Dec-23 14:57S 24°10' W 046°16'0 0.0
2017-Dec-23 14:29S 24°10' W 046°16'0 0.0
2017-Dec-23 13:59S 24°10' W 046°16'0 0.0
2017-Dec-23 13:29S 24°10' W 046°16'0 0.0
2017-Dec-23 12:59S 24°10' W 046°16'0 0.0
2017-Dec-23 12:30S 24°10' W 046°16'0 0.0
2017-Dec-23 12:00S 24°10' W 046°16'0 0.0
2017-Dec-23 11:30S 24°10' W 046°16'0 0.0
2017-Dec-23 10:59S 24°10' W 046°16'0 0.0
2017-Dec-23 10:29S 24°10' W 046°16'0 0.0
2017-Dec-23 09:59S 24°10' W 046°16'0 0.0
2017-Dec-23 09:29S 24°10' W 046°16'0 0.0
2017-Dec-23 09:00S 24°10' W 046°16'0 0.0
2017-Dec-23 08:23S 24°10' W 046°16'0 0.0
2017-Dec-23 07:56S 24°10' W 046°16'0 0.0
2017-Dec-23 07:29S 24°10' W 046°16'0 0.0
2017-Dec-23 06:53S 24°10' W 046°16'0 0.0
2017-Dec-23 06:29S 24°10' W 046°16'0 0.0
2017-Dec-23 05:56S 24°10' W 046°16'0 0.0
2017-Dec-23 05:23S 24°10' W 046°16'0 0.0
2017-Dec-23 04:59S 24°10' W 046°16'0 0.0
2017-Dec-23 04:26S 24°10' W 046°16'0 0.0
2017-Dec-23 03:59S 24°10' W 046°16'0 0.0
2017-Dec-23 03:29S 24°10' W 046°16'0 0.0
2017-Dec-23 02:59S 24°10' W 046°16'0 0.0
2017-Dec-23 02:29S 24°10' W 046°16'0 0.0
2017-Dec-23 01:59S 24°10' W 046°16'0 0.0
2017-Dec-23 01:29S 24°10' W 046°16'0 0.0
2017-Dec-23 00:59S 24°10' W 046°16'0 0.0
2017-Dec-23 00:29S 24°10' W 046°16'0 0.0
2017-Dec-22 23:59S 24°10' W 046°16'0 0.0
2017-Dec-22 23:29S 24°10' W 046°16'0 0.0
2017-Dec-22 22:59S 24°10' W 046°16'0 0.0
2017-Dec-22 22:29S 24°10' W 046°16'0 0.0
2017-Dec-22 21:59S 24°10' W 046°16'0 0.0
2017-Dec-22 21:26S 24°10' W 046°16'0 0.0
2017-Dec-22 20:59S 24°10' W 046°16'0 0.0
2017-Dec-22 20:29S 24°10' W 046°16'0 0.0
2017-Dec-22 19:59S 24°10' W 046°16'0 0.0
2017-Dec-22 19:26S 24°10' W 046°16'0 0.0
2017-Dec-22 18:59S 24°10' W 046°16'0 0.0
2017-Dec-22 18:26S 24°10' W 046°16'0 0.0
2017-Dec-22 17:59S 24°10' W 046°16'0 0.0
2017-Dec-22 17:29S 24°10' W 046°16'0 0.0
2017-Dec-22 16:59S 24°10' W 046°16'0 0.0
2017-Dec-22 16:23S 24°10' W 046°16'0 0.0
2017-Dec-22 15:53S 24°10' W 046°16'0 0.0
2017-Dec-22 15:29S 24°10' W 046°16'0 0.0
2017-Dec-22 14:59S 24°10' W 046°16'0 0.0
2017-Dec-22 14:29S 24°10' W 046°16'0 0.0
2017-Dec-22 13:59S 24°10' W 046°16'0 0.0
2017-Dec-22 13:23S 24°10' W 046°16'0 0.0
2017-Dec-22 12:56S 24°10' W 046°16'0 0.0
2017-Dec-22 12:26S 24°10' W 046°16'0 0.0
2017-Dec-22 11:59S 24°10' W 046°16'0 0.0
2017-Dec-22 11:29S 24°10' W 046°16'0 0.0
2017-Dec-22 10:59S 24°10' W 046°16'0 0.0
2017-Dec-22 10:29S 24°10' W 046°16'0 0.0
2017-Dec-22 09:59S 24°10' W 046°16'0 0.0
2017-Dec-22 09:29S 24°10' W 046°16'0 0.0
2017-Dec-22 08:59S 24°10' W 046°16'0 0.0
2017-Dec-22 08:23S 24°10' W 046°16'0 0.1
2017-Dec-22 07:59S 24°10' W 046°16'0 0.0
2017-Dec-22 07:23S 24°10' W 046°16'0 0.0
2017-Dec-22 06:53S 24°10' W 046°16'0 0.0
2017-Dec-22 06:29S 24°10' W 046°16'0 0.0
2017-Dec-22 05:59S 24°10' W 046°16'0 0.0
2017-Dec-22 05:29S 24°10' W 046°16'0 0.0
2017-Dec-22 04:59S 24°10' W 046°16'0 0.0
2017-Dec-22 04:29S 24°10' W 046°16'0 0.0
2017-Dec-22 03:59S 24°10' W 046°16'0 0.0
2017-Dec-22 03:29S 24°10' W 046°16'0 0.0
2017-Dec-22 02:59S 24°10' W 046°16'0 0.0
2017-Dec-22 02:29S 24°10' W 046°16'0 0.0
2017-Dec-22 01:59S 24°10' W 046°16'0 0.0
2017-Dec-22 01:29S 24°10' W 046°16'0 0.0
2017-Dec-22 00:53S 24°10' W 046°16'0 0.0
2017-Dec-22 00:23S 24°10' W 046°16'0 0.0
2017-Dec-21 23:53S 24°10' W 046°16'0 0.0
2017-Dec-21 23:29S 24°10' W 046°16'0 0.0
2017-Dec-21 22:53S 24°10' W 046°16'0 0.0
2017-Dec-21 22:26S 24°10' W 046°16'0 0.0
2017-Dec-21 21:59S 24°10' W 046°16'0 0.0
2017-Dec-21 21:08S 24°10' W 046°16'0 0.0
2017-Dec-21 20:56S 24°10' W 046°16'0 0.0
2017-Dec-21 20:26S 24°10' W 046°16'0 0.0
2017-Dec-21 19:59S 24°10' W 046°16'0 0.0
2017-Dec-21 19:29S 24°10' W 046°16'0 0.0
2017-Dec-21 18:59S 24°10' W 046°16'0 0.0
2017-Dec-21 18:29S 24°10' W 046°16'0 0.0
2017-Dec-21 17:59S 24°10' W 046°16'0 0.0
2017-Dec-21 17:29S 24°10' W 046°16'  

Dump ship's entire track history